createdAt,value
2019-01-18T00:02:20.329Z,2.10
2019-01-18T00:06:39.553Z,2.00
2019-01-18T00:10:57.661Z,2.00
2019-01-18T00:15:15.933Z,2.10
2019-01-18T00:19:34.084Z,2.23
2019-01-18T00:23:52.360Z,2.00
2019-01-18T00:28:10.939Z,2.00
2019-01-18T00:32:29.329Z,2.10
2019-01-18T00:36:47.657Z,2.20
2019-01-18T00:41:06.160Z,2.13
2019-01-18T00:45:24.680Z,1.63
2019-01-18T00:49:42.843Z,2.40
2019-01-18T00:54:01.023Z,2.20
2019-01-18T00:58:19.751Z,2.20
2019-01-18T01:02:38.013Z,1.83
2019-01-18T01:06:56.933Z,2.00
2019-01-18T01:11:15.076Z,1.70
2019-01-18T01:15:33.774Z,2.27
2019-01-18T01:19:52.255Z,2.13
2019-01-18T01:24:10.730Z,2.70
2019-01-18T01:28:28.893Z,2.30
2019-01-18T01:32:47.077Z,2.17
2019-01-18T01:37:05.197Z,2.33
2019-01-18T01:41:23.645Z,2.77
2019-01-18T01:45:41.779Z,2.00
2019-01-18T01:50:00.247Z,2.03
2019-01-18T01:54:18.524Z,2.50
2019-01-18T01:58:36.444Z,2.00
2019-01-18T02:02:54.688Z,2.57
2019-01-18T02:07:12.822Z,2.40
2019-01-18T02:11:30.992Z,2.10
2019-01-18T02:15:49.090Z,2.80
2019-01-18T02:20:08.842Z,2.70
2019-01-18T02:24:26.860Z,2.50
2019-01-18T02:28:45.543Z,3.23
2019-01-18T02:33:03.739Z,2.80
2019-01-18T02:37:21.860Z,3.23
2019-01-18T02:41:39.995Z,2.70
2019-01-18T02:45:58.131Z,2.40
2019-01-18T02:50:17.040Z,2.77
2019-01-18T02:54:35.436Z,2.27
2019-01-18T02:58:53.654Z,2.00
2019-01-18T03:03:11.922Z,2.17
2019-01-18T03:07:29.954Z,2.33
2019-01-18T03:11:48.146Z,1.60
2019-01-18T03:16:06.240Z,2.30
2019-01-18T03:20:24.453Z,2.53
2019-01-18T03:24:42.653Z,2.20
2019-01-18T03:29:01.148Z,2.23
2019-01-18T03:33:19.288Z,3.37
2019-01-18T03:37:37.416Z,2.30
2019-01-18T03:41:55.912Z,1.90
2019-01-18T03:46:14.189Z,1.77
2019-01-18T03:50:32.634Z,2.20
2019-01-18T03:54:50.788Z,1.87
2019-01-18T03:59:09.070Z,1.63
2019-01-18T04:03:27.243Z,1.60
2019-01-18T04:07:45.958Z,1.90
2019-01-18T04:12:04.413Z,2.40
2019-01-18T04:16:23.590Z,2.30
2019-01-18T04:20:41.721Z,2.00
2019-01-18T04:25:00.263Z,1.90
2019-01-18T04:29:18.385Z,1.90
2019-01-18T04:33:36.524Z,2.73
2019-01-18T04:37:55.119Z,2.00
2019-01-18T04:42:14.580Z,2.13
2019-01-18T04:46:33.660Z,2.03
2019-01-18T04:50:52.246Z,1.80
2019-01-18T04:55:11.343Z,2.17
2019-01-18T04:59:30.481Z,2.27
2019-01-18T05:03:48.509Z,2.03
2019-01-18T05:08:06.655Z,2.20
2019-01-18T05:12:24.812Z,2.40
2019-01-18T05:16:43.179Z,2.00
2019-01-18T05:21:01.973Z,1.77
2019-01-18T05:25:20.661Z,2.10
2019-01-18T05:29:38.849Z,2.00
2019-01-18T05:33:57.070Z,2.17
2019-01-18T05:38:15.106Z,2.20
2019-01-18T05:42:33.560Z,2.03
2019-01-18T05:46:51.764Z,2.30
2019-01-18T05:51:10.025Z,2.00
2019-01-18T05:55:28.525Z,1.70
2019-01-18T05:59:46.626Z,2.30
2019-01-18T06:04:05.067Z,2.73
2019-01-18T06:08:23.129Z,2.27
2019-01-18T06:12:41.439Z,1.90
2019-01-18T06:16:59.583Z,2.07
2019-01-18T06:21:17.954Z,2.50
2019-01-18T06:25:37.613Z,2.67
2019-01-18T06:29:56.172Z,2.00
2019-01-18T06:34:14.220Z,3.07
2019-01-18T06:38:32.373Z,2.07
2019-01-18T06:42:51.585Z,3.07
2019-01-18T06:47:09.740Z,2.80
2019-01-18T06:51:27.867Z,3.07
2019-01-18T06:55:46.363Z,3.37
2019-01-18T07:00:05.275Z,2.80
2019-01-18T07:04:23.418Z,2.80
2019-01-18T07:08:41.969Z,2.70
2019-01-18T07:13:00.160Z,2.53
2019-01-18T07:17:18.243Z,2.40
2019-01-18T07:21:36.330Z,2.17
2019-01-18T07:25:54.516Z,1.93
2019-01-18T07:30:18.706Z,2.73
2019-01-18T07:34:36.830Z,3.00
2019-01-18T07:39:00.473Z,2.40
2019-01-18T07:43:15.063Z,2.37
2019-01-18T07:47:33.621Z,2.07
2019-01-18T07:51:51.780Z,2.87
2019-01-18T07:56:10.327Z,3.00
2019-01-18T08:00:30.582Z,2.30
2019-01-18T08:04:48.825Z,2.70
2019-01-18T08:09:09.482Z,2.60
2019-01-18T08:13:27.666Z,2.53
2019-01-18T08:17:45.858Z,2.30
2019-01-18T08:22:03.955Z,2.27
2019-01-18T08:26:22.038Z,2.10
2019-01-18T08:30:40.469Z,2.57
2019-01-18T08:34:58.646Z,2.20
2019-01-18T08:39:17.716Z,2.77
2019-01-18T08:43:35.973Z,2.53
2019-01-18T08:47:54.120Z,3.10
2019-01-18T08:52:13.953Z,2.30
2019-01-18T08:56:32.147Z,2.80
2019-01-18T09:00:51.666Z,2.83
2019-01-18T09:05:13.789Z,2.13
2019-01-18T09:09:32.109Z,3.03
2019-01-18T09:13:50.699Z,3.63
2019-01-18T09:18:09.173Z,3.37
2019-01-18T09:22:27.724Z,3.70
2019-01-18T09:26:47.251Z,2.63
2019-01-18T09:31:05.561Z,2.30
2019-01-18T09:35:25.153Z,3.50
2019-01-18T09:39:43.277Z,3.80
2019-01-18T09:44:01.774Z,2.60
2019-01-18T09:48:19.880Z,3.37
2019-01-18T09:52:38.032Z,3.50
2019-01-18T09:56:56.319Z,3.07
2019-01-18T10:01:14.540Z,2.83
2019-01-18T10:05:33.729Z,3.23
2019-01-18T10:09:53.451Z,5.20
2019-01-18T10:14:11.628Z,2.77
2019-01-18T10:18:29.834Z,2.30
2019-01-18T10:22:49.408Z,2.40
2019-01-18T10:27:07.457Z,1.90
2019-01-18T10:31:25.617Z,2.40
2019-01-18T10:35:43.921Z,2.60
2019-01-18T10:40:02.088Z,2.90
2019-01-18T10:44:20.198Z,1.87
2019-01-18T10:48:38.273Z,2.20
2019-01-18T10:52:56.536Z,2.17
2019-01-18T10:57:15.129Z,3.00
2019-01-18T11:01:34.837Z,2.00
2019-01-18T11:05:53.852Z,1.93
2019-01-18T11:10:12.602Z,2.23
2019-01-18T11:14:31.845Z,2.13
2019-01-18T11:18:50.602Z,2.20
2019-01-18T11:23:10.750Z,2.03
2019-01-18T11:27:31.603Z,2.10
2019-01-18T11:31:50.324Z,2.57
2019-01-18T11:36:09.076Z,1.80
2019-01-18T11:40:27.680Z,1.70
2019-01-18T11:45:05.985Z,1.93
2019-01-18T11:49:26.201Z,1.80
2019-01-18T11:53:45.071Z,1.90
2019-01-18T11:58:03.284Z,1.90
2019-01-18T12:02:22.290Z,2.00
2019-01-18T12:06:40.370Z,1.67
2019-01-18T12:10:58.497Z,1.90
2019-01-18T12:15:17.057Z,1.60
2019-01-18T12:19:35.727Z,2.13
2019-01-18T12:23:53.783Z,2.13
2019-01-18T12:28:12.502Z,1.90
2019-01-18T12:32:31.309Z,2.23
2019-01-18T12:36:49.785Z,2.00
2019-01-18T12:41:08.142Z,2.50
2019-01-18T12:45:27.457Z,2.27
2019-01-18T12:49:45.742Z,2.43
2019-01-18T12:54:03.782Z,2.13
2019-01-18T12:58:22.279Z,4.03
2019-01-18T13:02:40.868Z,2.60
2019-01-18T13:06:59.163Z,2.87
2019-01-18T13:11:18.272Z,2.80
2019-01-18T13:16:28.862Z,3.27
2019-01-18T13:20:47.045Z,3.20
2019-01-18T13:25:06.939Z,2.83
2019-01-18T13:29:25.242Z,2.93
2019-01-18T13:33:44.079Z,3.00
2019-01-18T13:38:02.877Z,2.47
2019-01-18T13:53:55.471Z,2.70
2019-01-18T13:58:14.046Z,1.90
2019-01-18T14:02:32.373Z,2.20
2019-01-18T14:06:50.544Z,1.60
2019-01-18T14:11:16.313Z,2.00
2019-01-18T14:15:35.006Z,1.90
2019-01-18T14:19:55.094Z,1.90
2019-01-18T14:24:13.467Z,1.90
2019-01-18T14:28:31.791Z,1.80
2019-01-18T14:32:55.378Z,1.93
2019-01-18T14:37:09.522Z,2.00
2019-01-18T14:41:31.159Z,1.73
2019-01-18T14:45:47.604Z,1.77
2019-01-18T14:50:07.364Z,1.70
2019-01-18T14:54:25.499Z,1.70
2019-01-18T14:58:43.910Z,1.80
2019-01-18T15:03:03.052Z,2.10
2019-01-18T15:07:22.449Z,2.13
2019-01-18T15:11:40.617Z,2.00
2019-01-18T15:15:59.186Z,1.90
2019-01-18T15:20:23.825Z,1.60
2019-01-18T15:24:41.947Z,2.20
2019-01-18T15:29:00.232Z,2.67
2019-01-18T15:33:18.417Z,2.20
2019-01-18T15:37:36.915Z,2.43
2019-01-18T15:41:55.024Z,2.77
2019-01-18T15:46:13.140Z,2.50
2019-01-18T15:50:34.574Z,3.43
2019-01-18T15:54:53.579Z,2.57
2019-01-18T15:59:11.738Z,3.27
2019-01-18T16:03:29.850Z,2.90
2019-01-18T16:07:47.860Z,3.30
2019-01-18T16:12:06.213Z,3.80
2019-01-18T16:16:43.902Z,3.50
2019-01-18T16:21:02.658Z,3.93
2019-01-18T16:25:27.990Z,4.47
2019-01-18T16:29:46.462Z,3.87
2019-01-18T16:34:04.643Z,4.50
2019-01-18T16:38:23.148Z,3.20
2019-01-18T16:42:41.584Z,3.30
2019-01-18T16:46:59.877Z,2.97
2019-01-18T16:51:18.388Z,3.43
2019-01-18T16:55:36.591Z,3.43
2019-01-18T16:59:56.426Z,2.93
2019-01-18T17:04:15.380Z,3.23
2019-01-18T17:08:33.527Z,3.20
2019-01-18T17:12:51.666Z,3.87
2019-01-18T17:17:09.847Z,3.23
2019-01-18T17:21:28.000Z,4.33
2019-01-18T17:25:46.562Z,3.80
2019-01-18T17:30:06.163Z,4.47
2019-01-18T17:34:24.345Z,4.00
2019-01-18T17:39:20.234Z,5.23
2019-01-18T17:44:31.434Z,4.60
2019-01-18T17:49:27.182Z,4.97
2019-01-18T17:54:36.037Z,5.37
2019-01-18T17:59:57.059Z,4.90
2019-01-18T18:05:38.627Z,5.00
2019-01-18T18:10:19.691Z,4.10
2019-01-18T18:15:53.899Z,3.90
2019-01-18T18:21:21.800Z,4.30
2019-01-18T18:26:43.486Z,4.60
2019-01-18T18:31:26.546Z,4.17
2019-01-18T18:36:57.320Z,4.60
2019-01-18T18:42:48.971Z,4.27
2019-01-18T18:47:52.929Z,5.97
2019-01-18T18:52:53.382Z,5.20
2019-01-18T18:58:27.680Z,4.53
2019-01-18T19:03:57.245Z,5.63
2019-01-18T19:08:48.359Z,5.20
2019-01-18T19:14:18.678Z,5.00
2019-01-18T19:19:58.964Z,5.03
2019-01-18T19:25:22.613Z,5.10
2019-01-18T19:30:25.100Z,4.80
2019-01-18T19:35:29.051Z,3.80
2019-01-18T19:40:27.619Z,4.53
2019-01-18T19:45:38.352Z,4.07
2019-01-18T19:50:51.208Z,4.00
2019-01-18T19:55:53.126Z,4.80
2019-01-18T20:01:05.507Z,4.07
2019-01-18T20:06:05.299Z,4.57
2019-01-18T20:11:34.937Z,4.00
2019-01-18T20:16:23.353Z,4.23
2019-01-18T20:21:14.677Z,4.57
2019-01-18T20:26:21.387Z,4.90
2019-01-18T20:31:40.919Z,4.80
2019-01-18T20:36:57.670Z,4.50
2019-01-18T20:41:50.808Z,4.50
2019-01-18T20:47:21.583Z,4.70
2019-01-18T20:52:02.456Z,5.63
2019-01-18T20:57:09.659Z,4.87
2019-01-18T21:02:20.586Z,5.63
2019-01-18T21:07:15.005Z,4.83
2019-01-18T21:12:09.953Z,5.20
2019-01-18T21:17:25.270Z,4.90
2019-01-18T21:22:59.443Z,6.50
2019-01-18T21:28:13.672Z,5.60
2019-01-18T21:33:50.675Z,6.00
2019-01-18T21:39:48.421Z,5.27
2019-01-18T21:45:04.034Z,6.23
2019-01-18T21:50:20.251Z,5.90
2019-01-18T21:55:20.137Z,6.40
2019-01-18T22:00:24.717Z,6.73
2019-01-18T22:04:51.842Z,6.10
2019-01-18T22:09:47.265Z,5.80
2019-01-18T22:14:30.078Z,6.80
2019-01-18T22:19:43.561Z,7.10
2019-01-18T22:24:51.649Z,7.43
2019-01-18T22:29:47.873Z,6.50
2019-01-18T22:34:55.735Z,7.63
2019-01-18T22:40:26.869Z,7.13
2019-01-18T22:45:26.686Z,7.40
2019-01-18T22:50:30.846Z,7.37
2019-01-18T22:55:15.259Z,7.57
2019-01-18T23:00:57.107Z,7.57
2019-01-18T23:06:20.304Z,7.97
2019-01-18T23:11:26.835Z,6.30
2019-01-18T23:16:34.851Z,7.40
2019-01-18T23:22:00.794Z,7.40
2019-01-18T23:27:03.739Z,7.40
2019-01-18T23:32:09.050Z,7.00
2019-01-18T23:37:06.941Z,7.17
2019-01-18T23:42:27.681Z,7.00
2019-01-18T23:47:58.586Z,6.60
2019-01-18T23:53:18.540Z,8.00
2019-01-18T23:58:10.752Z,7.20
